sensor_id;sensor_type;location;lat;lon;timestamp;P1;durP1;ratioP1;P2;durP2;ratioP2
76846;SDS011;65813;49.546;8.644;2022-12-10T05:19:11;19.58;;;9.38;;
76846;SDS011;65813;49.546;8.644;2022-12-10T05:23:11;22.60;;;10.25;;
76846;SDS011;65813;49.546;8.644;2022-12-10T05:31:31;21.77;;;9.90;;
76846;SDS011;65813;49.546;8.644;2022-12-10T05:35:31;21.17;;;10.10;;
76846;SDS011;65813;49.546;8.644;2022-12-10T05:39:32;21.10;;;10.30;;
76846;SDS011;65813;49.546;8.644;2022-12-10T05:43:32;21.43;;;10.33;;
76846;SDS011;65813;49.546;8.644;2022-12-10T05:47:32;23.97;;;10.03;;
76846;SDS011;65813;49.546;8.644;2022-12-10T05:51:34;20.43;;;10.33;;
76846;SDS011;65813;49.546;8.644;2022-12-10T05:55:36;18.63;;;9.05;;
76846;SDS011;65813;49.546;8.644;2022-12-10T05:59:36;18.07;;;9.97;;
76846;SDS011;65813;49.546;8.644;2022-12-10T06:03:38;19.08;;;9.82;;
76846;SDS011;65813;49.546;8.644;2022-12-10T06:07:39;20.60;;;9.80;;
76846;SDS011;65813;49.546;8.644;2022-12-10T06:11:39;20.27;;;9.60;;
76846;SDS011;65813;49.546;8.644;2022-12-10T06:15:40;20.42;;;9.80;;
76846;SDS011;65813;49.546;8.644;2022-12-10T06:19:41;18.45;;;9.90;;
76846;SDS011;65813;49.546;8.644;2022-12-10T06:23:42;18.23;;;9.13;;
76846;SDS011;65813;49.546;8.644;2022-12-10T06:27:42;18.77;;;9.48;;
76846;SDS011;65813;49.546;8.644;2022-12-10T06:31:43;19.33;;;8.80;;
76846;SDS011;65813;49.546;8.644;2022-12-10T06:35:43;18.48;;;9.38;;
76846;SDS011;65813;49.546;8.644;2022-12-10T06:39:43;20.87;;;10.33;;
76846;SDS011;65813;49.546;8.644;2022-12-10T06:43:44;19.17;;;8.70;;
76846;SDS011;65813;49.546;8.644;2022-12-10T06:47:44;21.83;;;9.30;;
76846;SDS011;65813;49.546;8.644;2022-12-10T06:51:44;19.63;;;9.63;;
76846;SDS011;65813;49.546;8.644;2022-12-10T06:55:47;19.20;;;10.27;;
76846;SDS011;65813;49.546;8.644;2022-12-10T06:59:47;19.30;;;10.07;;
76846;SDS011;65813;49.546;8.644;2022-12-10T07:03:48;22.03;;;9.97;;
76846;SDS011;65813;49.546;8.644;2022-12-10T07:07:49;20.92;;;10.55;;
76846;SDS011;65813;49.546;8.644;2022-12-10T07:11:50;21.43;;;10.03;;
76846;SDS011;65813;49.546;8.644;2022-12-10T07:15:50;20.40;;;9.87;;
76846;SDS011;65813;49.546;8.644;2022-12-10T07:19:50;20.30;;;9.43;;
76846;SDS011;65813;49.546;8.644;2022-12-10T07:23:51;18.07;;;9.70;;
76846;SDS011;65813;49.546;8.644;2022-12-10T07:27:57;20.98;;;10.45;;
76846;SDS011;65813;49.546;8.644;2022-12-10T07:31:58;20.13;;;8.93;;
76846;SDS011;65813;49.546;8.644;2022-12-10T07:35:58;23.27;;;10.43;;
76846;SDS011;65813;49.546;8.644;2022-12-10T07:39:59;19.95;;;11.13;;
76846;SDS011;65813;49.546;8.644;2022-12-10T07:43:59;19.60;;;9.90;;
76846;SDS011;65813;49.546;8.644;2022-12-10T07:47:59;22.77;;;10.87;;
76846;SDS011;65813;49.546;8.644;2022-12-10T07:52:00;20.53;;;9.70;;
76846;SDS011;65813;49.546;8.644;2022-12-10T07:56:00;20.23;;;9.67;;
76846;SDS011;65813;49.546;8.644;2022-12-10T08:00:02;22.98;;;10.55;;
76846;SDS011;65813;49.546;8.644;2022-12-10T08:04:03;21.25;;;10.05;;
76846;SDS011;65813;49.546;8.644;2022-12-10T08:08:03;18.30;;;9.27;;
76846;SDS011;65813;49.546;8.644;2022-12-10T08:12:04;18.13;;;7.95;;
76846;SDS011;65813;49.546;8.644;2022-12-10T08:16:10;19.80;;;8.48;;
76846;SDS011;65813;49.546;8.644;2022-12-10T08:20:18;18.75;;;9.15;;
76846;SDS011;65813;49.546;8.644;2022-12-10T08:24:18;16.93;;;7.67;;
76846;SDS011;65813;49.546;8.644;2022-12-10T08:28:19;19.57;;;8.63;;
76846;SDS011;65813;49.546;8.644;2022-12-10T08:32:19;18.10;;;8.80;;
76846;SDS011;65813;49.546;8.644;2022-12-10T08:36:19;20.80;;;8.47;;
76846;SDS011;65813;49.546;8.644;2022-12-10T08:40:20;16.52;;;8.25;;
76846;SDS011;65813;49.546;8.644;2022-12-10T08:44:20;16.73;;;8.50;;
76846;SDS011;65813;49.546;8.644;2022-12-10T08:48:21;18.43;;;9.37;;
76846;SDS011;65813;49.546;8.644;2022-12-10T08:52:21;16.63;;;8.43;;
76846;SDS011;65813;49.546;8.644;2022-12-10T08:56:22;16.47;;;8.30;;
76846;SDS011;65813;49.546;8.644;2022-12-10T09:00:22;18.53;;;9.47;;
76846;SDS011;65813;49.546;8.644;2022-12-10T09:04:23;16.25;;;8.05;;
76846;SDS011;65813;49.546;8.644;2022-12-10T09:08:23;20.03;;;9.83;;
76846;SDS011;65813;49.546;8.644;2022-12-10T09:12:23;18.50;;;9.50;;
76846;SDS011;65813;49.546;8.644;2022-12-10T09:16:31;16.92;;;8.30;;
76846;SDS011;65813;49.546;8.644;2022-12-10T09:20:33;18.58;;;9.65;;
76846;SDS011;65813;49.546;8.644;2022-12-10T09:24:34;26.17;;;11.90;;
76846;SDS011;65813;49.546;8.644;2022-12-10T09:28:34;16.90;;;8.93;;
76846;SDS011;65813;49.546;8.644;2022-12-10T09:32:36;20.00;;;9.43;;
76846;SDS011;65813;49.546;8.644;2022-12-10T09:36:36;19.55;;;9.80;;
76846;SDS011;65813;49.546;8.644;2022-12-10T09:40:48;17.67;;;8.63;;
76846;SDS011;65813;49.546;8.644;2022-12-10T09:53:42;16.92;;;8.07;;
76846;SDS011;65813;49.546;8.644;2022-12-10T09:57:49;17.35;;;9.90;;
76846;SDS011;65813;49.546;8.644;2022-12-10T10:02:00;19.52;;;8.63;;
76846;SDS011;65813;49.546;8.644;2022-12-10T10:06:21;19.17;;;8.65;;
76846;SDS011;65813;49.546;8.644;2022-12-10T10:14:27;20.30;;;8.90;;
76846;SDS011;65813;49.546;8.644;2022-12-10T10:18:36;18.23;;;9.07;;
76846;SDS011;65813;49.546;8.644;2022-12-10T10:22:40;15.43;;;8.10;;
76846;SDS011;65813;49.546;8.644;2022-12-10T10:26:41;16.48;;;8.75;;
76846;SDS011;65813;49.546;8.644;2022-12-10T10:30:42;17.73;;;8.70;;
76846;SDS011;65813;49.546;8.644;2022-12-10T10:34:44;18.05;;;9.13;;
76846;SDS011;65813;49.546;8.644;2022-12-10T10:38:47;18.30;;;9.55;;
76846;SDS011;65813;49.546;8.644;2022-12-10T10:42:48;18.35;;;9.68;;
76846;SDS011;65813;49.546;8.644;2022-12-10T10:46:49;21.02;;;10.70;;
76846;SDS011;65813;49.546;8.644;2022-12-10T10:55:30;19.73;;;10.05;;
76846;SDS011;65813;49.546;8.644;2022-12-10T10:59:36;20.08;;;9.48;;
76846;SDS011;65813;49.546;8.644;2022-12-10T11:03:36;19.75;;;9.68;;
76846;SDS011;65813;49.546;8.644;2022-12-10T11:07:47;19.30;;;9.40;;
76846;SDS011;65813;49.546;8.644;2022-12-10T11:11:51;23.77;;;10.53;;
76846;SDS011;65813;49.546;8.644;2022-12-10T11:16:12;19.60;;;10.48;;
76846;SDS011;65813;49.546;8.644;2022-12-10T11:20:20;20.83;;;11.10;;
76846;SDS011;65813;49.546;8.644;2022-12-10T11:33:09;18.17;;;9.13;;
76846;SDS011;65813;49.546;8.644;2022-12-10T11:49:53;15.52;;;8.55;;
76846;SDS011;65813;49.546;8.644;2022-12-10T11:54:11;18.45;;;8.85;;
76846;SDS011;65813;49.546;8.644;2022-12-10T11:58:34;16.95;;;8.18;;
76846;SDS011;65813;49.546;8.644;2022-12-10T12:19:10;16.77;;;8.30;;
76846;SDS011;65813;49.546;8.644;2022-12-10T12:23:24;17.33;;;8.25;;
76846;SDS011;65813;49.546;8.644;2022-12-10T12:27:34;16.17;;;8.75;;
76846;SDS011;65813;49.546;8.644;2022-12-10T12:31:39;18.10;;;8.43;;
76846;SDS011;65813;49.546;8.644;2022-12-10T12:35:42;17.58;;;9.05;;
76846;SDS011;65813;49.546;8.644;2022-12-10T12:39:50;18.40;;;8.77;;
76846;SDS011;65813;49.546;8.644;2022-12-10T12:44:12;17.08;;;8.60;;
76846;SDS011;65813;49.546;8.644;2022-12-10T12:48:32;17.67;;;8.13;;
76846;SDS011;65813;49.546;8.644;2022-12-10T13:05:35;18.65;;;8.40;;
76846;SDS011;65813;49.546;8.644;2022-12-10T13:09:44;15.75;;;8.70;;
76846;SDS011;65813;49.546;8.644;2022-12-10T13:22:40;16.88;;;8.63;;
76846;SDS011;65813;49.546;8.644;2022-12-10T13:26:41;16.63;;;9.35;;
76846;SDS011;65813;49.546;8.644;2022-12-10T13:52:13;14.45;;;7.90;;
76846;SDS011;65813;49.546;8.644;2022-12-10T13:56:24;15.68;;;8.20;;
76846;SDS011;65813;49.546;8.644;2022-12-10T14:00:31;16.40;;;8.50;;
76846;SDS011;65813;49.546;8.644;2022-12-10T14:05:09;15.40;;;7.82;;
76846;SDS011;65813;49.546;8.644;2022-12-10T14:09:26;17.77;;;8.65;;
76846;SDS011;65813;49.546;8.644;2022-12-10T14:13:49;19.67;;;9.30;;
76846;SDS011;65813;49.546;8.644;2022-12-10T14:17:57;18.30;;;9.10;;
76846;SDS011;65813;49.546;8.644;2022-12-10T14:22:10;19.30;;;9.70;;
76846;SDS011;65813;49.546;8.644;2022-12-10T14:26:18;19.50;;;9.07;;
76846;SDS011;65813;49.546;8.644;2022-12-10T14:30:21;19.33;;;9.57;;
76846;SDS011;65813;49.546;8.644;2022-12-10T14:34:32;17.52;;;8.48;;
76846;SDS011;65813;49.546;8.644;2022-12-10T14:38:42;17.60;;;8.38;;
76846;SDS011;65813;49.546;8.644;2022-12-10T14:42:46;16.27;;;7.68;;
76846;SDS011;65813;49.546;8.644;2022-12-10T14:46:46;16.10;;;7.93;;
76846;SDS011;65813;49.546;8.644;2022-12-10T14:50:47;14.15;;;7.43;;
76846;SDS011;65813;49.546;8.644;2022-12-10T14:54:48;15.57;;;8.23;;
76846;SDS011;65813;49.546;8.644;2022-12-10T14:59:04;15.93;;;8.07;;
76846;SDS011;65813;49.546;8.644;2022-12-10T15:03:15;17.45;;;7.88;;
76846;SDS011;65813;49.546;8.644;2022-12-10T15:07:30;15.23;;;7.70;;
76846;SDS011;65813;49.546;8.644;2022-12-10T15:11:34;16.40;;;7.60;;
76846;SDS011;65813;49.546;8.644;2022-12-10T15:19:37;17.40;;;8.38;;
76846;SDS011;65813;49.546;8.644;2022-12-10T15:23:37;16.17;;;8.27;;
76846;SDS011;65813;49.546;8.644;2022-12-10T15:27:51;16.20;;;7.68;;
76846;SDS011;65813;49.546;8.644;2022-12-10T15:31:59;15.68;;;7.90;;
76846;SDS011;65813;49.546;8.644;2022-12-10T15:36:24;16.33;;;9.00;;
76846;SDS011;65813;49.546;8.644;2022-12-10T15:40:30;17.75;;;9.10;;
76846;SDS011;65813;49.546;8.644;2022-12-10T15:48:39;14.63;;;7.25;;
76846;SDS011;65813;49.546;8.644;2022-12-10T15:52:39;15.97;;;7.90;;
76846;SDS011;65813;49.546;8.644;2022-12-10T15:56:40;11.57;;;7.15;;
76846;SDS011;65813;49.546;8.644;2022-12-10T16:00:40;15.47;;;8.17;;
76846;SDS011;65813;49.546;8.644;2022-12-10T16:04:43;15.13;;;7.85;;
76846;SDS011;65813;49.546;8.644;2022-12-10T16:08:44;13.03;;;7.47;;
76846;SDS011;65813;49.546;8.644;2022-12-10T16:12:48;17.30;;;8.20;;
76846;SDS011;65813;49.546;8.644;2022-12-10T16:16:54;15.52;;;7.53;;
76846;SDS011;65813;49.546;8.644;2022-12-10T16:20:54;15.50;;;8.23;;
76846;SDS011;65813;49.546;8.644;2022-12-10T16:24:55;13.90;;;7.37;;
76846;SDS011;65813;49.546;8.644;2022-12-10T16:28:55;14.17;;;8.17;;
76846;SDS011;65813;49.546;8.644;2022-12-10T16:32:55;14.23;;;7.63;;
76846;SDS011;65813;49.546;8.644;2022-12-10T16:36:56;15.67;;;7.20;;
76846;SDS011;65813;49.546;8.644;2022-12-10T16:40:56;14.23;;;7.57;;
76846;SDS011;65813;49.546;8.644;2022-12-10T16:44:58;14.35;;;7.97;;
76846;SDS011;65813;49.546;8.644;2022-12-10T16:48:59;13.18;;;6.93;;
76846;SDS011;65813;49.546;8.644;2022-12-10T16:53:01;13.00;;;7.97;;
76846;SDS011;65813;49.546;8.644;2022-12-10T16:57:10;15.20;;;7.93;;
76846;SDS011;65813;49.546;8.644;2022-12-10T17:05:31;13.30;;;7.38;;
76846;SDS011;65813;49.546;8.644;2022-12-10T17:09:35;14.60;;;7.75;;
76846;SDS011;65813;49.546;8.644;2022-12-10T17:13:35;13.57;;;7.50;;
76846;SDS011;65813;49.546;8.644;2022-12-10T17:17:36;13.93;;;6.50;;
76846;SDS011;65813;49.546;8.644;2022-12-10T17:21:36;15.10;;;7.80;;
76846;SDS011;65813;49.546;8.644;2022-12-10T17:25:37;13.15;;;7.82;;
76846;SDS011;65813;49.546;8.644;2022-12-10T17:29:39;14.13;;;8.07;;
76846;SDS011;65813;49.546;8.644;2022-12-10T17:33:41;15.05;;;7.82;;
76846;SDS011;65813;49.546;8.644;2022-12-10T17:37:42;13.23;;;7.50;;
76846;SDS011;65813;49.546;8.644;2022-12-10T17:41:42;15.32;;;7.45;;
76846;SDS011;65813;49.546;8.644;2022-12-10T17:45:43;14.10;;;7.50;;
76846;SDS011;65813;49.546;8.644;2022-12-10T17:49:45;13.90;;;7.10;;
76846;SDS011;65813;49.546;8.644;2022-12-10T17:53:45;15.97;;;8.00;;
76846;SDS011;65813;49.546;8.644;2022-12-10T17:57:46;16.20;;;7.97;;
76846;SDS011;65813;49.546;8.644;2022-12-10T18:01:46;15.20;;;8.25;;
76846;SDS011;65813;49.546;8.644;2022-12-10T18:05:49;14.37;;;8.63;;
76846;SDS011;65813;49.546;8.644;2022-12-10T18:09:50;15.57;;;7.85;;
76846;SDS011;65813;49.546;8.644;2022-12-10T18:13:50;14.30;;;8.17;;
76846;SDS011;65813;49.546;8.644;2022-12-10T18:17:51;12.57;;;7.68;;
76846;SDS011;65813;49.546;8.644;2022-12-10T18:21:52;13.75;;;7.72;;
76846;SDS011;65813;49.546;8.644;2022-12-10T18:25:53;12.97;;;7.57;;
76846;SDS011;65813;49.546;8.644;2022-12-10T18:29:54;16.55;;;7.85;;
76846;SDS011;65813;49.546;8.644;2022-12-10T18:33:57;14.80;;;7.57;;
76846;SDS011;65813;49.546;8.644;2022-12-10T18:37:59;14.27;;;7.93;;
76846;SDS011;65813;49.546;8.644;2022-12-10T18:42:00;14.73;;;8.17;;
76846;SDS011;65813;49.546;8.644;2022-12-10T18:46:00;15.05;;;8.25;;
76846;SDS011;65813;49.546;8.644;2022-12-10T18:50:01;15.23;;;8.63;;
76846;SDS011;65813;49.546;8.644;2022-12-10T18:54:02;16.13;;;8.18;;
76846;SDS011;65813;49.546;8.644;2022-12-10T18:58:03;14.23;;;7.15;;
76846;SDS011;65813;49.546;8.644;2022-12-10T19:02:03;15.13;;;7.90;;
76846;SDS011;65813;49.546;8.644;2022-12-10T19:06:03;13.95;;;7.82;;
76846;SDS011;65813;49.546;8.644;2022-12-10T19:10:05;18.65;;;8.43;;
76846;SDS011;65813;49.546;8.644;2022-12-10T19:14:13;15.30;;;8.90;;
76846;SDS011;65813;49.546;8.644;2022-12-10T19:18:15;17.10;;;9.73;;
76846;SDS011;65813;49.546;8.644;2022-12-10T19:22:15;17.42;;;9.45;;
76846;SDS011;65813;49.546;8.644;2022-12-10T19:26:22;17.57;;;9.40;;
76846;SDS011;65813;49.546;8.644;2022-12-10T19:30:26;18.75;;;9.98;;
76846;SDS011;65813;49.546;8.644;2022-12-10T19:34:27;19.08;;;10.13;;
76846;SDS011;65813;49.546;8.644;2022-12-10T19:38:28;19.38;;;11.00;;
76846;SDS011;65813;49.546;8.644;2022-12-10T19:42:28;19.13;;;10.90;;
76846;SDS011;65813;49.546;8.644;2022-12-10T19:46:29;18.60;;;8.70;;
76846;SDS011;65813;49.546;8.644;2022-12-10T19:50:32;14.13;;;8.23;;
76846;SDS011;65813;49.546;8.644;2022-12-10T19:54:37;16.75;;;8.15;;
76846;SDS011;65813;49.546;8.644;2022-12-10T19:58:38;14.60;;;7.77;;
76846;SDS011;65813;49.546;8.644;2022-12-10T20:02:38;16.80;;;7.70;;
76846;SDS011;65813;49.546;8.644;2022-12-10T20:06:39;13.73;;;7.25;;
76846;SDS011;65813;49.546;8.644;2022-12-10T20:10:41;15.18;;;7.28;;
76846;SDS011;65813;49.546;8.644;2022-12-10T20:14:42;15.63;;;8.07;;
76846;SDS011;65813;49.546;8.644;2022-12-10T20:18:42;15.30;;;8.10;;
76846;SDS011;65813;49.546;8.644;2022-12-10T20:22:44;15.27;;;8.20;;
76846;SDS011;65813;49.546;8.644;2022-12-10T20:26:45;15.23;;;7.65;;
76846;SDS011;65813;49.546;8.644;2022-12-10T20:30:47;16.40;;;8.48;;
76846;SDS011;65813;49.546;8.644;2022-12-10T20:34:47;15.73;;;7.13;;
76846;SDS011;65813;49.546;8.644;2022-12-10T20:38:48;13.10;;;7.37;;
76846;SDS011;65813;49.546;8.644;2022-12-10T20:42:49;14.98;;;7.80;;
76846;SDS011;65813;49.546;8.644;2022-12-10T20:46:50;17.02;;;8.27;;
76846;SDS011;65813;49.546;8.644;2022-12-10T20:50:51;17.20;;;8.95;;
76846;SDS011;65813;49.546;8.644;2022-12-10T20:54:51;17.00;;;8.50;;
76846;SDS011;65813;49.546;8.644;2022-12-10T20:58:52;18.23;;;8.57;;
76846;SDS011;65813;49.546;8.644;2022-12-10T21:02:52;18.98;;;10.23;;
76846;SDS011;65813;49.546;8.644;2022-12-10T21:06:53;22.23;;;10.50;;
76846;SDS011;65813;49.546;8.644;2022-12-10T21:10:53;17.73;;;8.57;;
76846;SDS011;65813;49.546;8.644;2022-12-10T21:14:54;20.05;;;8.80;;
76846;SDS011;65813;49.546;8.644;2022-12-10T21:18:54;16.70;;;8.27;;
76846;SDS011;65813;49.546;8.644;2022-12-10T21:22:55;21.42;;;9.88;;
76846;SDS011;65813;49.546;8.644;2022-12-10T21:26:56;21.10;;;9.55;;
76846;SDS011;65813;49.546;8.644;2022-12-10T21:30:57;18.05;;;9.93;;
76846;SDS011;65813;49.546;8.644;2022-12-10T21:34:57;19.73;;;10.65;;
76846;SDS011;65813;49.546;8.644;2022-12-10T21:38:57;18.20;;;9.93;;
76846;SDS011;65813;49.546;8.644;2022-12-10T21:42:58;21.97;;;9.83;;
76846;SDS011;65813;49.546;8.644;2022-12-10T21:47:17;19.30;;;10.52;;
76846;SDS011;65813;49.546;8.644;2022-12-10T21:51:17;21.93;;;11.90;;
76846;SDS011;65813;49.546;8.644;2022-12-10T21:55:18;24.73;;;11.25;;
76846;SDS011;65813;49.546;8.644;2022-12-10T21:59:19;25.88;;;12.45;;
76846;SDS011;65813;49.546;8.644;2022-12-10T22:03:19;24.10;;;11.80;;
76846;SDS011;65813;49.546;8.644;2022-12-10T22:07:19;22.20;;;11.50;;
76846;SDS011;65813;49.546;8.644;2022-12-10T22:11:22;22.70;;;10.98;;
